sensor_id;sensor_type;location;lat;lon;timestamp;temperature;humidity
13310;DHT22;6723;48.256;16.402;2023-07-31T00:00:27;19.30;99.90
13310;DHT22;6723;48.256;16.402;2023-07-31T00:02:54;19.30;99.90
13310;DHT22;6723;48.256;16.402;2023-07-31T00:05:20;19.20;99.90
13310;DHT22;6723;48.256;16.402;2023-07-31T00:07:47;19.20;99.90
13310;DHT22;6723;48.256;16.402;2023-07-31T00:10:12;19.20;99.90
13310;DHT22;6723;48.256;16.402;2023-07-31T00:12:39;19.10;99.90
13310;DHT22;6723;48.256;16.402;2023-07-31T00:15:07;19.10;99.90
13310;DHT22;6723;48.256;16.402;2023-07-31T00:17:33;19.20;99.90
13310;DHT22;6723;48.256;16.402;2023-07-31T00:19:59;19.10;99.90
13310;DHT22;6723;48.256;16.402;2023-07-31T00:22:24;19.10;99.90
13310;DHT22;6723;48.256;16.402;2023-07-31T00:24:50;19.10;99.90
13310;DHT22;6723;48.256;16.402;2023-07-31T00:27:16;19.10;99.90
13310;DHT22;6723;48.256;16.402;2023-07-31T00:29:42;19.10;99.90
13310;DHT22;6723;48.256;16.402;2023-07-31T00:32:08;19.00;99.90
13310;DHT22;6723;48.256;16.402;2023-07-31T00:34:34;19.00;99.90
13310;DHT22;6723;48.256;16.402;2023-07-31T00:36:59;19.00;99.90
13310;DHT22;6723;48.256;16.402;2023-07-31T00:39:25;19.00;99.90
13310;DHT22;6723;48.256;16.402;2023-07-31T00:41:51;19.00;99.90
13310;DHT22;6723;48.256;16.402;2023-07-31T00:44:16;18.90;99.90
13310;DHT22;6723;48.256;16.402;2023-07-31T00:46:42;18.90;99.90
13310;DHT22;6723;48.256;16.402;2023-07-31T00:49:09;18.80;99.90
13310;DHT22;6723;48.256;16.402;2023-07-31T00:51:35;18.80;99.90
13310;DHT22;6723;48.256;16.402;2023-07-31T00:54:02;18.80;99.90
13310;DHT22;6723;48.256;16.402;2023-07-31T00:56:29;18.80;99.90
13310;DHT22;6723;48.256;16.402;2023-07-31T00:58:55;18.80;99.90
13310;DHT22;6723;48.256;16.402;2023-07-31T01:01:21;18.70;99.90
13310;DHT22;6723;48.256;16.402;2023-07-31T01:03:48;18.80;99.90
13310;DHT22;6723;48.256;16.402;2023-07-31T01:06:36;18.80;99.90
13310;DHT22;6723;48.256;16.402;2023-07-31T01:11:57;18.80;99.90
13310;DHT22;6723;48.256;16.402;2023-07-31T01:14:23;18.80;99.90
13310;DHT22;6723;48.256;16.402;2023-07-31T01:16:48;18.80;99.90
13310;DHT22;6723;48.256;16.402;2023-07-31T01:19:15;18.80;99.90
13310;DHT22;6723;48.256;16.402;2023-07-31T01:22:14;18.80;99.90
13310;DHT22;6723;48.256;16.402;2023-07-31T01:24:57;18.80;99.90
13310;DHT22;6723;48.256;16.402;2023-07-31T01:27:30;18.80;99.90
13310;DHT22;6723;48.256;16.402;2023-07-31T01:30:08;18.70;99.90
13310;DHT22;6723;48.256;16.402;2023-07-31T01:32:41;18.80;99.90
13310;DHT22;6723;48.256;16.402;2023-07-31T01:35:07;18.80;99.90
13310;DHT22;6723;48.256;16.402;2023-07-31T01:37:34;18.80;99.90
13310;DHT22;6723;48.256;16.402;2023-07-31T01:40:00;18.80;99.90
13310;DHT22;6723;48.256;16.402;2023-07-31T01:42:26;18.80;99.90
13310;DHT22;6723;48.256;16.402;2023-07-31T01:44:52;18.80;99.90
13310;DHT22;6723;48.256;16.402;2023-07-31T01:47:17;18.80;99.90
13310;DHT22;6723;48.256;16.402;2023-07-31T01:49:43;18.80;99.90
13310;DHT22;6723;48.256;16.402;2023-07-31T01:52:09;18.70;99.90
13310;DHT22;6723;48.256;16.402;2023-07-31T01:54:34;18.70;99.90
13310;DHT22;6723;48.256;16.402;2023-07-31T01:57:02;18.70;99.90
13310;DHT22;6723;48.256;16.402;2023-07-31T01:59:28;18.70;99.90
13310;DHT22;6723;48.256;16.402;2023-07-31T02:01:54;18.70;99.90
13310;DHT22;6723;48.256;16.402;2023-07-31T02:04:20;18.70;99.90
13310;DHT22;6723;48.256;16.402;2023-07-31T02:06:46;18.60;99.90
13310;DHT22;6723;48.256;16.402;2023-07-31T02:09:11;18.70;99.90
13310;DHT22;6723;48.256;16.402;2023-07-31T02:11:37;18.60;99.90
13310;DHT22;6723;48.256;16.402;2023-07-31T02:14:03;18.60;99.90
13310;DHT22;6723;48.256;16.402;2023-07-31T02:16:29;18.60;99.90
13310;DHT22;6723;48.256;16.402;2023-07-31T02:18:54;18.60;99.90
13310;DHT22;6723;48.256;16.402;2023-07-31T02:21:20;18.60;99.90
13310;DHT22;6723;48.256;16.402;2023-07-31T02:23:46;18.60;99.90
13310;DHT22;6723;48.256;16.402;2023-07-31T02:26:12;18.60;99.90
13310;DHT22;6723;48.256;16.402;2023-07-31T02:28:37;18.60;99.90
13310;DHT22;6723;48.256;16.402;2023-07-31T02:31:03;18.70;99.90
13310;DHT22;6723;48.256;16.402;2023-07-31T02:33:29;18.70;99.90
13310;DHT22;6723;48.256;16.402;2023-07-31T02:35:55;18.60;99.90
13310;DHT22;6723;48.256;16.402;2023-07-31T02:38:21;18.60;99.90
13310;DHT22;6723;48.256;16.402;2023-07-31T02:40:46;18.60;99.90
13310;DHT22;6723;48.256;16.402;2023-07-31T02:43:13;18.50;99.90
13310;DHT22;6723;48.256;16.402;2023-07-31T02:45:39;18.50;99.90
13310;DHT22;6723;48.256;16.402;2023-07-31T02:48:05;18.50;99.90
13310;DHT22;6723;48.256;16.402;2023-07-31T02:50:31;18.50;99.90
13310;DHT22;6723;48.256;16.402;2023-07-31T02:52:57;18.50;99.90
13310;DHT22;6723;48.256;16.402;2023-07-31T02:55:23;18.50;99.90
13310;DHT22;6723;48.256;16.402;2023-07-31T02:57:49;18.40;99.90
13310;DHT22;6723;48.256;16.402;2023-07-31T03:00:15;18.40;99.90
13310;DHT22;6723;48.256;16.402;2023-07-31T03:02:41;18.50;99.90
13310;DHT22;6723;48.256;16.402;2023-07-31T03:05:07;18.50;99.90
13310;DHT22;6723;48.256;16.402;2023-07-31T03:07:33;18.50;99.90
13310;DHT22;6723;48.256;16.402;2023-07-31T03:09:59;18.50;99.90
13310;DHT22;6723;48.256;16.402;2023-07-31T03:12:24;18.40;99.90
13310;DHT22;6723;48.256;16.402;2023-07-31T03:14:50;18.40;99.90
13310;DHT22;6723;48.256;16.402;2023-07-31T03:17:16;18.50;99.90
13310;DHT22;6723;48.256;16.402;2023-07-31T03:19:41;18.40;99.90
13310;DHT22;6723;48.256;16.402;2023-07-31T03:22:07;18.40;99.90
13310;DHT22;6723;48.256;16.402;2023-07-31T03:24:33;18.40;99.90
13310;DHT22;6723;48.256;16.402;2023-07-31T03:26:58;18.40;99.90
13310;DHT22;6723;48.256;16.402;2023-07-31T03:29:24;18.40;99.90
13310;DHT22;6723;48.256;16.402;2023-07-31T03:31:50;18.50;99.90
13310;DHT22;6723;48.256;16.402;2023-07-31T03:34:16;18.40;99.90
13310;DHT22;6723;48.256;16.402;2023-07-31T03:36:42;18.40;99.90
13310;DHT22;6723;48.256;16.402;2023-07-31T03:39:08;18.40;99.90
13310;DHT22;6723;48.256;16.402;2023-07-31T03:41:34;18.40;99.90
13310;DHT22;6723;48.256;16.402;2023-07-31T03:43:59;18.40;99.90
13310;DHT22;6723;48.256;16.402;2023-07-31T03:46:25;18.40;99.90
13310;DHT22;6723;48.256;16.402;2023-07-31T03:48:51;18.40;99.90
13310;DHT22;6723;48.256;16.402;2023-07-31T03:51:17;18.40;99.90
13310;DHT22;6723;48.256;16.402;2023-07-31T03:53:44;18.40;99.90
13310;DHT22;6723;48.256;16.402;2023-07-31T03:56:10;18.40;99.90
13310;DHT22;6723;48.256;16.402;2023-07-31T03:58:37;18.40;99.90
13310;DHT22;6723;48.256;16.402;2023-07-31T04:01:03;18.50;99.90
13310;DHT22;6723;48.256;16.402;2023-07-31T04:03:30;18.50;99.90
13310;DHT22;6723;48.256;16.402;2023-07-31T04:05:55;18.50;99.90
13310;DHT22;6723;48.256;16.402;2023-07-31T04:08:22;18.70;99.90
13310;DHT22;6723;48.256;16.402;2023-07-31T04:10:48;18.70;99.90
13310;DHT22;6723;48.256;16.402;2023-07-31T04:13:15;18.90;99.90
13310;DHT22;6723;48.256;16.402;2023-07-31T04:15:41;18.90;99.90
13310;DHT22;6723;48.256;16.402;2023-07-31T04:18:07;19.00;99.90
13310;DHT22;6723;48.256;16.402;2023-07-31T04:20:33;19.00;99.90
13310;DHT22;6723;48.256;16.402;2023-07-31T04:22:59;19.10;99.90
13310;DHT22;6723;48.256;16.402;2023-07-31T04:25:25;19.10;99.90
13310;DHT22;6723;48.256;16.402;2023-07-31T04:27:50;19.10;99.90
13310;DHT22;6723;48.256;16.402;2023-07-31T04:30:16;19.20;99.90
13310;DHT22;6723;48.256;16.402;2023-07-31T04:32:42;19.30;99.90
13310;DHT22;6723;48.256;16.402;2023-07-31T04:35:08;19.40;99.90
13310;DHT22;6723;48.256;16.402;2023-07-31T04:37:33;19.40;99.90
13310;DHT22;6723;48.256;16.402;2023-07-31T04:39:59;19.50;99.90
13310;DHT22;6723;48.256;16.402;2023-07-31T04:42:25;19.50;99.90
13310;DHT22;6723;48.256;16.402;2023-07-31T04:44:51;19.50;99.90
13310;DHT22;6723;48.256;16.402;2023-07-31T04:47:18;19.50;99.90
13310;DHT22;6723;48.256;16.402;2023-07-31T04:49:44;19.60;99.90
13310;DHT22;6723;48.256;16.402;2023-07-31T04:52:10;19.60;99.90
13310;DHT22;6723;48.256;16.402;2023-07-31T04:54:36;19.70;99.90
13310;DHT22;6723;48.256;16.402;2023-07-31T04:57:01;19.60;99.90
13310;DHT22;6723;48.256;16.402;2023-07-31T04:59:27;19.50;99.90
13310;DHT22;6723;48.256;16.402;2023-07-31T05:01:53;19.50;99.90
13310;DHT22;6723;48.256;16.402;2023-07-31T05:04:19;19.50;99.90
13310;DHT22;6723;48.256;16.402;2023-07-31T05:06:44;19.60;99.90
13310;DHT22;6723;48.256;16.402;2023-07-31T05:09:10;19.90;99.90
13310;DHT22;6723;48.256;16.402;2023-07-31T05:11:36;20.10;99.90
13310;DHT22;6723;48.256;16.402;2023-07-31T05:14:02;20.20;99.90
13310;DHT22;6723;48.256;16.402;2023-07-31T05:16:27;20.30;99.90
13310;DHT22;6723;48.256;16.402;2023-07-31T05:18:53;20.30;99.90
13310;DHT22;6723;48.256;16.402;2023-07-31T05:21:19;20.40;99.90
13310;DHT22;6723;48.256;16.402;2023-07-31T05:23:44;20.50;99.90
13310;DHT22;6723;48.256;16.402;2023-07-31T05:26:10;20.50;99.90
13310;DHT22;6723;48.256;16.402;2023-07-31T05:28:36;20.60;99.90
13310;DHT22;6723;48.256;16.402;2023-07-31T05:31:03;20.70;99.90
13310;DHT22;6723;48.256;16.402;2023-07-31T05:33:29;20.70;99.90
13310;DHT22;6723;48.256;16.402;2023-07-31T05:35:56;20.70;99.90
13310;DHT22;6723;48.256;16.402;2023-07-31T05:38:22;20.80;99.90
13310;DHT22;6723;48.256;16.402;2023-07-31T05:40:48;20.70;99.90
13310;DHT22;6723;48.256;16.402;2023-07-31T05:43:14;20.60;99.90
13310;DHT22;6723;48.256;16.402;2023-07-31T05:45:41;20.60;99.90
13310;DHT22;6723;48.256;16.402;2023-07-31T05:48:07;20.80;99.90
13310;DHT22;6723;48.256;16.402;2023-07-31T05:50:33;20.80;99.90
13310;DHT22;6723;48.256;16.402;2023-07-31T05:52:59;20.90;99.90
13310;DHT22;6723;48.256;16.402;2023-07-31T05:55:25;21.00;99.90
13310;DHT22;6723;48.256;16.402;2023-07-31T05:57:54;21.20;99.90
13310;DHT22;6723;48.256;16.402;2023-07-31T06:00:20;21.40;99.90
13310;DHT22;6723;48.256;16.402;2023-07-31T06:02:49;21.50;99.90
13310;DHT22;6723;48.256;16.402;2023-07-31T06:05:15;21.50;99.30
13310;DHT22;6723;48.256;16.402;2023-07-31T06:07:41;21.60;99.30
13310;DHT22;6723;48.256;16.402;2023-07-31T06:10:07;21.60;97.70
13310;DHT22;6723;48.256;16.402;2023-07-31T06:12:34;21.60;97.20
13310;DHT22;6723;48.256;16.402;2023-07-31T06:15:02;21.60;97.00
13310;DHT22;6723;48.256;16.402;2023-07-31T06:17:28;21.50;96.90
13310;DHT22;6723;48.256;16.402;2023-07-31T06:19:56;21.50;96.90
13310;DHT22;6723;48.256;16.402;2023-07-31T06:22:23;21.50;96.90
13310;DHT22;6723;48.256;16.402;2023-07-31T06:24:48;21.60;97.00
13310;DHT22;6723;48.256;16.402;2023-07-31T06:27:14;21.50;97.00
13310;DHT22;6723;48.256;16.402;2023-07-31T06:29:40;21.60;97.50
13310;DHT22;6723;48.256;16.402;2023-07-31T06:32:07;21.60;97.40
13310;DHT22;6723;48.256;16.402;2023-07-31T06:34:33;21.60;97.60
13310;DHT22;6723;48.256;16.402;2023-07-31T06:36:59;21.70;97.80
13310;DHT22;6723;48.256;16.402;2023-07-31T06:39:24;21.70;97.70
13310;DHT22;6723;48.256;16.402;2023-07-31T06:41:50;21.70;97.50
13310;DHT22;6723;48.256;16.402;2023-07-31T06:44:16;21.70;97.30
13310;DHT22;6723;48.256;16.402;2023-07-31T06:46:42;21.70;96.90
13310;DHT22;6723;48.256;16.402;2023-07-31T06:49:08;21.60;96.60
13310;DHT22;6723;48.256;16.402;2023-07-31T06:51:34;21.70;97.00
13310;DHT22;6723;48.256;16.402;2023-07-31T06:54:01;21.90;96.70
13310;DHT22;6723;48.256;16.402;2023-07-31T06:56:27;22.00;95.40
13310;DHT22;6723;48.256;16.402;2023-07-31T06:58:53;22.20;95.40
13310;DHT22;6723;48.256;16.402;2023-07-31T07:01:18;22.30;94.10
13310;DHT22;6723;48.256;16.402;2023-07-31T07:03:44;22.50;94.00
13310;DHT22;6723;48.256;16.402;2023-07-31T07:06:10;22.70;93.60
13310;DHT22;6723;48.256;16.402;2023-07-31T07:08:36;22.90;93.50
13310;DHT22;6723;48.256;16.402;2023-07-31T07:11:01;23.10;92.20
13310;DHT22;6723;48.256;16.402;2023-07-31T07:13:27;23.40;92.10
13310;DHT22;6723;48.256;16.402;2023-07-31T07:15:53;23.70;91.90
13310;DHT22;6723;48.256;16.402;2023-07-31T07:18:19;23.90;91.50
13310;DHT22;6723;48.256;16.402;2023-07-31T07:20:50;24.30;91.40
13310;DHT22;6723;48.256;16.402;2023-07-31T07:23:16;24.90;90.90
13310;DHT22;6723;48.256;16.402;2023-07-31T07:25:44;25.30;91.10
13310;DHT22;6723;48.256;16.402;2023-07-31T07:28:11;25.90;90.70
13310;DHT22;6723;48.256;16.402;2023-07-31T07:30:37;26.40;87.20
13310;DHT22;6723;48.256;16.402;2023-07-31T07:33:03;26.40;85.30
13310;DHT22;6723;48.256;16.402;2023-07-31T07:35:28;26.60;85.40
13310;DHT22;6723;48.256;16.402;2023-07-31T07:37:54;26.90;84.70
13310;DHT22;6723;48.256;16.402;2023-07-31T07:40:21;26.90;83.20
13310;DHT22;6723;48.256;16.402;2023-07-31T07:42:47;26.90;83.00
13310;DHT22;6723;48.256;16.402;2023-07-31T07:45:13;27.50;82.50
13310;DHT22;6723;48.256;16.402;2023-07-31T07:47:41;28.10;81.90
13310;DHT22;6723;48.256;16.402;2023-07-31T07:50:08;27.70;82.50
13310;DHT22;6723;48.256;16.402;2023-07-31T07:52:34;27.70;82.10
13310;DHT22;6723;48.256;16.402;2023-07-31T07:55:00;27.60;80.10
13310;DHT22;6723;48.256;16.402;2023-07-31T07:57:26;27.10;80.50
13310;DHT22;6723;48.256;16.402;2023-07-31T07:59:52;27.20;79.20
13310;DHT22;6723;48.256;16.402;2023-07-31T08:02:18;27.00;78.80
13310;DHT22;6723;48.256;16.402;2023-07-31T08:04:44;26.50;79.60
13310;DHT22;6723;48.256;16.402;2023-07-31T08:07:13;26.40;80.50
13310;DHT22;6723;48.256;16.402;2023-07-31T08:09:39;25.90;79.80
13310;DHT22;6723;48.256;16.402;2023-07-31T08:12:06;25.70;81.10
13310;DHT22;6723;48.256;16.402;2023-07-31T08:14:32;25.40;81.70
13310;DHT22;6723;48.256;16.402;2023-07-31T08:16:58;25.80;80.80
13310;DHT22;6723;48.256;16.402;2023-07-31T08:19:24;26.30;80.80
13310;DHT22;6723;48.256;16.402;2023-07-31T08:21:50;26.40;81.10
13310;DHT22;6723;48.256;16.402;2023-07-31T08:24:15;26.30;79.70
13310;DHT22;6723;48.256;16.402;2023-07-31T08:26:42;27.20;79.20
13310;DHT22;6723;48.256;16.402;2023-07-31T08:29:08;27.80;78.40
13310;DHT22;6723;48.256;16.402;2023-07-31T08:31:34;28.20;76.90
13310;DHT22;6723;48.256;16.402;2023-07-31T08:34:00;28.10;76.70
13310;DHT22;6723;48.256;16.402;2023-07-31T08:36:26;28.40;76.20
13310;DHT22;6723;48.256;16.402;2023-07-31T08:38:52;27.50;76.20
13310;DHT22;6723;48.256;16.402;2023-07-31T08:41:19;28.50;75.50
13310;DHT22;6723;48.256;16.402;2023-07-31T08:43:46;29.00;75.60
13310;DHT22;6723;48.256;16.402;2023-07-31T08:46:12;29.80;74.90
13310;DHT22;6723;48.256;16.402;2023-07-31T08:48:43;30.60;75.80
13310;DHT22;6723;48.256;16.402;2023-07-31T08:51:11;31.10;70.70
13310;DHT22;6723;48.256;16.402;2023-07-31T08:53:37;31.20;70.00
13310;DHT22;6723;48.256;16.402;2023-07-31T08:56:03;31.00;69.20
13310;DHT22;6723;48.256;16.402;2023-07-31T08:58:33;29.90;67.80
13310;DHT22;6723;48.256;16.402;2023-07-31T09:01:04;30.30;69.70
13310;DHT22;6723;48.256;16.402;2023-07-31T09:03:33;31.40;70.30
13310;DHT22;6723;48.256;16.402;2023-07-31T09:06:00;30.60;67.00
13310;DHT22;6723;48.256;16.402;2023-07-31T09:08:30;30.00;69.10
13310;DHT22;6723;48.256;16.402;2023-07-31T09:11:00;30.50;67.20
13310;DHT22;6723;48.256;16.402;2023-07-31T09:13:30;30.10;68.90
13310;DHT22;6723;48.256;16.402;2023-07-31T09:15:56;31.30;69.80
13310;DHT22;6723;48.256;16.402;2023-07-31T09:18:23;31.60;67.20
13310;DHT22;6723;48.256;16.402;2023-07-31T09:21:04;32.10;64.30
13310;DHT22;6723;48.256;16.402;2023-07-31T09:23:45;31.30;63.90
13310;DHT22;6723;48.256;16.402;2023-07-31T09:26:11;30.60;62.10
13310;DHT22;6723;48.256;16.402;2023-07-31T09:28:53;31.00;63.30
13310;DHT22;6723;48.256;16.402;2023-07-31T09:31:41;32.50;65.10
13310;DHT22;6723;48.256;16.402;2023-07-31T09:34:07;31.60;60.80
13310;DHT22;6723;48.256;16.402;2023-07-31T09:36:43;31.40;60.80
13310;DHT22;6723;48.256;16.402;2023-07-31T09:39:13;31.00;61.80
13310;DHT22;6723;48.256;16.402;2023-07-31T09:41:43;31.20;62.40
13310;DHT22;6723;48.256;16.402;2023-07-31T09:44:09;31.60;63.70
13310;DHT22;6723;48.256;16.402;2023-07-31T09:46:36;31.30;61.70
13310;DHT22;6723;48.256;16.402;2023-07-31T09:49:07;31.30;63.30
13310;DHT22;6723;48.256;16.402;2023-07-31T09:51:36;31.20;61.20
13310;DHT22;6723;48.256;16.402;2023-07-31T09:54:14;31.60;61.30
13310;DHT22;6723;48.256;16.402;2023-07-31T09:56:45;30.80;61.70
13310;DHT22;6723;48.256;16.402;2023-07-31T09:59:16;31.20;62.60
13310;DHT22;6723;48.256;16.402;2023-07-31T10:01:43;31.30;63.10
13310;DHT22;6723;48.256;16.402;2023-07-31T10:04:10;30.90;62.80
13310;DHT22;6723;48.256;16.402;2023-07-31T10:06:37;30.40;62.00
13310;DHT22;6723;48.256;16.402;2023-07-31T10:09:09;30.40;63.60
13310;DHT22;6723;48.256;16.402;2023-07-31T10:11:47;30.90;63.60
13310;DHT22;6723;48.256;16.402;2023-07-31T10:14:24;30.50;63.50
13310;DHT22;6723;48.256;16.402;2023-07-31T10:16:49;30.40;63.00
13310;DHT22;6723;48.256;16.402;2023-07-31T10:19:17;30.10;63.70
13310;DHT22;6723;48.256;16.402;2023-07-31T10:21:43;29.80;63.50
13310;DHT22;6723;48.256;16.402;2023-07-31T10:24:09;30.20;63.50
13310;DHT22;6723;48.256;16.402;2023-07-31T10:26:38;29.90;64.00
13310;DHT22;6723;48.256;16.402;2023-07-31T10:29:05;29.70;64.30
13310;DHT22;6723;48.256;16.402;2023-07-31T10:31:32;29.10;66.20
13310;DHT22;6723;48.256;16.402;2023-07-31T10:34:00;29.60;66.10
13310;DHT22;6723;48.256;16.402;2023-07-31T10:36:28;29.00;66.40
13310;DHT22;6723;48.256;16.402;2023-07-31T10:38:56;29.20;66.30
13310;DHT22;6723;48.256;16.402;2023-07-31T10:41:31;29.70;66.00
13310;DHT22;6723;48.256;16.402;2023-07-31T10:44:01;30.10;66.60
13310;DHT22;6723;48.256;16.402;2023-07-31T10:46:29;29.90;65.00
13310;DHT22;6723;48.256;16.402;2023-07-31T10:49:01;30.80;66.50
13310;DHT22;6723;48.256;16.402;2023-07-31T10:51:34;30.90;64.60
13310;DHT22;6723;48.256;16.402;2023-07-31T10:54:15;30.40;64.00
13310;DHT22;6723;48.256;16.402;2023-07-31T10:56:46;30.00;65.20
13310;DHT22;6723;48.256;16.402;2023-07-31T10:59:15;30.90;67.60
13310;DHT22;6723;48.256;16.402;2023-07-31T11:01:57;32.00;67.10
13310;DHT22;6723;48.256;16.402;2023-07-31T11:04:27;31.60;61.60
13310;DHT22;6723;48.256;16.402;2023-07-31T11:07:00;31.40;61.70
13310;DHT22;6723;48.256;16.402;2023-07-31T11:09:31;31.70;64.20
13310;DHT22;6723;48.256;16.402;2023-07-31T11:12:00;32.00;63.40
13310;DHT22;6723;48.256;16.402;2023-07-31T11:14:26;32.50;64.90
13310;DHT22;6723;48.256;16.402;2023-07-31T11:16:52;31.80;62.10
13310;DHT22;6723;48.256;16.402;2023-07-31T11:19:25;32.20;64.20
13310;DHT22;6723;48.256;16.402;2023-07-31T11:21:52;32.40;63.90
13310;DHT22;6723;48.256;16.402;2023-07-31T11:24:21;33.40;62.20
13310;DHT22;6723;48.256;16.402;2023-07-31T11:26:53;33.20;61.30
13310;DHT22;6723;48.256;16.402;2023-07-31T11:29:20;33.30;62.30
13310;DHT22;6723;48.256;16.402;2023-07-31T11:31:47;33.00;62.50
13310;DHT22;6723;48.256;16.402;2023-07-31T11:34:14;31.80;61.10
13310;DHT22;6723;48.256;16.402;2023-07-31T11:36:40;31.40;61.30
13310;DHT22;6723;48.256;16.402;2023-07-31T11:39:10;30.60;62.70
13310;DHT22;6723;48.256;16.402;2023-07-31T11:41:40;30.70;63.30
13310;DHT22;6723;48.256;16.402;2023-07-31T11:44:05;30.90;62.90
13310;DHT22;6723;48.256;16.402;2023-07-31T11:46:31;31.00;64.30
13310;DHT22;6723;48.256;16.402;2023-07-31T11:49:01;31.60;64.00
13310;DHT22;6723;48.256;16.402;2023-07-31T11:51:28;32.10;62.90
13310;DHT22;6723;48.256;16.402;2023-07-31T11:53:59;31.80;63.50
13310;DHT22;6723;48.256;16.402;2023-07-31T11:56:27;32.80;63.50
13310;DHT22;6723;48.256;16.402;2023-07-31T11:58:58;32.60;60.20
13310;DHT22;6723;48.256;16.402;2023-07-31T12:01:24;32.00;61.80
13310;DHT22;6723;48.256;16.402;2023-07-31T12:03:53;32.70;61.10
13310;DHT22;6723;48.256;16.402;2023-07-31T12:06:19;32.10;59.40
13310;DHT22;6723;48.256;16.402;2023-07-31T12:08:47;31.60;59.90
13310;DHT22;6723;48.256;16.402;2023-07-31T12:11:13;31.30;60.70
13310;DHT22;6723;48.256;16.402;2023-07-31T12:13:43;30.60;61.20
13310;DHT22;6723;48.256;16.402;2023-07-31T12:16:09;30.50;62.10
13310;DHT22;6723;48.256;16.402;2023-07-31T12:18:37;30.50;62.60
13310;DHT22;6723;48.256;16.402;2023-07-31T12:21:05;30.80;63.70
13310;DHT22;6723;48.256;16.402;2023-07-31T12:23:32;31.10;60.70
13310;DHT22;6723;48.256;16.402;2023-07-31T12:26:14;31.10;59.10
13310;DHT22;6723;48.256;16.402;2023-07-31T12:31:10;31.40;59.50
13310;DHT22;6723;48.256;16.402;2023-07-31T12:33:38;31.00;59.10
13310;DHT22;6723;48.256;16.402;2023-07-31T12:36:13;30.90;59.80
13310;DHT22;6723;48.256;16.402;2023-07-31T12:38:40;30.90;59.60
13310;DHT22;6723;48.256;16.402;2023-07-31T12:41:07;30.60;58.80
13310;DHT22;6723;48.256;16.402;2023-07-31T12:43:37;30.80;59.20
13310;DHT22;6723;48.256;16.402;2023-07-31T12:46:04;30.50;58.90
13310;DHT22;6723;48.256;16.402;2023-07-31T12:48:31;30.60;60.40
13310;DHT22;6723;48.256;16.402;2023-07-31T12:50:58;30.70;58.80
13310;DHT22;6723;48.256;16.402;2023-07-31T12:53:23;30.40;58.40
13310;DHT22;6723;48.256;16.402;2023-07-31T12:55:49;31.00;61.00
13310;DHT22;6723;48.256;16.402;2023-07-31T12:58:16;30.70;59.90
13310;DHT22;6723;48.256;16.402;2023-07-31T13:00:41;31.00;61.00
13310;DHT22;6723;48.256;16.402;2023-07-31T13:03:08;31.20;61.10
13310;DHT22;6723;48.256;16.402;2023-07-31T13:05:34;31.10;61.00
13310;DHT22;6723;48.256;16.402;2023-07-31T13:08:00;31.20;62.30
13310;DHT22;6723;48.256;16.402;2023-07-31T13:10:27;31.40;61.30
13310;DHT22;6723;48.256;16.402;2023-07-31T13:12:54;31.90;60.20
13310;DHT22;6723;48.256;16.402;2023-07-31T13:15:20;31.40;58.10
13310;DHT22;6723;48.256;16.402;2023-07-31T13:17:46;31.20;59.20
13310;DHT22;6723;48.256;16.402;2023-07-31T13:20:12;31.20;59.80
13310;DHT22;6723;48.256;16.402;2023-07-31T13:22:38;31.00;59.90
13310;DHT22;6723;48.256;16.402;2023-07-31T13:25:04;31.00;60.60
13310;DHT22;6723;48.256;16.402;2023-07-31T13:27:31;30.80;59.10
13310;DHT22;6723;48.256;16.402;2023-07-31T13:29:57;30.90;61.50
13310;DHT22;6723;48.256;16.402;2023-07-31T13:32:22;31.00;60.40
13310;DHT22;6723;48.256;16.402;2023-07-31T13:34:49;31.10;61.40
13310;DHT22;6723;48.256;16.402;2023-07-31T13:37:15;31.20;61.10
13310;DHT22;6723;48.256;16.402;2023-07-31T13:39:42;30.90;58.60
13310;DHT22;6723;48.256;16.402;2023-07-31T13:42:08;30.80;60.90
13310;DHT22;6723;48.256;16.402;2023-07-31T13:44:35;30.80;59.80
13310;DHT22;6723;48.256;16.402;2023-07-31T13:47:01;30.90;60.30
13310;DHT22;6723;48.256;16.402;2023-07-31T13:49:28;30.50;59.70
13310;DHT22;6723;48.256;16.402;2023-07-31T13:51:54;30.30;60.00
13310;DHT22;6723;48.256;16.402;2023-07-31T13:54:19;30.40;61.40
13310;DHT22;6723;48.256;16.402;2023-07-31T13:56:45;30.50;61.80
13310;DHT22;6723;48.256;16.402;2023-07-31T13:59:11;30.70;61.40
13310;DHT22;6723;48.256;16.402;2023-07-31T14:01:37;30.30;61.30
13310;DHT22;6723;48.256;16.402;2023-07-31T14:04:03;30.60;61.10
13310;DHT22;6723;48.256;16.402;2023-07-31T14:06:29;30.70;61.70
13310;DHT22;6723;48.256;16.402;2023-07-31T14:08:55;30.70;61.90
13310;DHT22;6723;48.256;16.402;2023-07-31T14:11:22;30.40;60.80
13310;DHT22;6723;48.256;16.402;2023-07-31T14:13:49;30.30;61.20
13310;DHT22;6723;48.256;16.402;2023-07-31T14:16:15;30.00;60.90
13310;DHT22;6723;48.256;16.402;2023-07-31T14:18:42;29.60;60.50
13310;DHT22;6723;48.256;16.402;2023-07-31T14:21:07;29.50;60.00
13310;DHT22;6723;48.256;16.402;2023-07-31T14:23:34;29.60;61.50
13310;DHT22;6723;48.256;16.402;2023-07-31T14:25:59;29.70;61.60
13310;DHT22;6723;48.256;16.402;2023-07-31T14:28:25;29.30;62.00
13310;DHT22;6723;48.256;16.402;2023-07-31T14:30:51;29.50;62.70
13310;DHT22;6723;48.256;16.402;2023-07-31T14:33:17;29.40;62.80
13310;DHT22;6723;48.256;16.402;2023-07-31T14:35:42;29.50;62.90
13310;DHT22;6723;48.256;16.402;2023-07-31T14:38:08;29.90;62.10
13310;DHT22;6723;48.256;16.402;2023-07-31T14:40:34;30.20;61.30
13310;DHT22;6723;48.256;16.402;2023-07-31T14:43:00;30.60;60.00
13310;DHT22;6723;48.256;16.402;2023-07-31T14:45:26;30.40;59.50
13310;DHT22;6723;48.256;16.402;2023-07-31T14:47:51;30.30;58.80
13310;DHT22;6723;48.256;16.402;2023-07-31T14:50:17;30.80;59.70
13310;DHT22;6723;48.256;16.402;2023-07-31T14:52:43;30.30;57.90
13310;DHT22;6723;48.256;16.402;2023-07-31T14:55:09;30.50;59.50
13310;DHT22;6723;48.256;16.402;2023-07-31T14:57:35;30.30;58.90
13310;DHT22;6723;48.256;16.402;2023-07-31T15:00:01;30.30;59.30
13310;DHT22;6723;48.256;16.402;2023-07-31T15:02:27;30.20;59.10
13310;DHT22;6723;48.256;16.402;2023-07-31T15:04:53;30.40;59.60
13310;DHT22;6723;48.256;16.402;2023-07-31T15:07:18;30.30;59.10
13310;DHT22;6723;48.256;16.402;2023-07-31T15:09:44;30.30;58.30
13310;DHT22;6723;48.256;16.402;2023-07-31T15:12:10;30.20;59.30
13310;DHT22;6723;48.256;16.402;2023-07-31T15:14:36;30.30;59.30
13310;DHT22;6723;48.256;16.402;2023-07-31T15:17:01;30.30;59.30
13310;DHT22;6723;48.256;16.402;2023-07-31T15:19:27;29.90;60.10
13310;DHT22;6723;48.256;16.402;2023-07-31T15:21:54;29.60;58.80
13310;DHT22;6723;48.256;16.402;2023-07-31T15:24:20;29.60;59.50
13310;DHT22;6723;48.256;16.402;2023-07-31T15:26:46;29.50;57.60
13310;DHT22;6723;48.256;16.402;2023-07-31T15:29:12;29.60;58.00
13310;DHT22;6723;48.256;16.402;2023-07-31T15:31:43;29.60;58.20
13310;DHT22;6723;48.256;16.402;2023-07-31T15:34:09;29.70;59.20